sensor_id;sensor_type;location;lat;lon;timestamp;P1;durP1;ratioP1;P2;durP2;ratioP2
45114;SDS011;30877;43.706;10.780;2024-03-22T00:00:31;12.68;;;11.07;;
45114;SDS011;30877;43.706;10.780;2024-03-22T00:03:01;16.02;;;11.27;;
45114;SDS011;30877;43.706;10.780;2024-03-22T00:05:29;12.13;;;10.88;;
45114;SDS011;30877;43.706;10.780;2024-03-22T00:07:57;12.07;;;10.43;;
45114;SDS011;30877;43.706;10.780;2024-03-22T00:10:24;12.50;;;10.65;;
45114;SDS011;30877;43.706;10.780;2024-03-22T00:12:51;11.73;;;10.40;;
45114;SDS011;30877;43.706;10.780;2024-03-22T00:15:20;13.25;;;11.20;;
45114;SDS011;30877;43.706;10.780;2024-03-22T00:17:48;11.55;;;10.35;;
45114;SDS011;30877;43.706;10.780;2024-03-22T00:20:15;11.02;;;9.88;;
45114;SDS011;30877;43.706;10.780;2024-03-22T00:22:44;14.57;;;10.52;;
45114;SDS011;30877;43.706;10.780;2024-03-22T00:25:12;11.35;;;10.07;;
45114;SDS011;30877;43.706;10.780;2024-03-22T00:27:41;12.52;;;10.82;;
45114;SDS011;30877;43.706;10.780;2024-03-22T00:30:10;13.98;;;10.70;;
45114;SDS011;30877;43.706;10.780;2024-03-22T00:32:39;13.07;;;10.40;;
45114;SDS011;30877;43.706;10.780;2024-03-22T00:35:06;12.95;;;10.80;;
45114;SDS011;30877;43.706;10.780;2024-03-22T00:37:34;14.50;;;10.27;;
45114;SDS011;30877;43.706;10.780;2024-03-22T00:40:02;11.57;;;10.30;;
45114;SDS011;30877;43.706;10.780;2024-03-22T00:42:30;12.90;;;10.63;;
45114;SDS011;30877;43.706;10.780;2024-03-22T00:44:57;11.77;;;10.57;;
45114;SDS011;30877;43.706;10.780;2024-03-22T00:47:25;13.35;;;10.55;;
45114;SDS011;30877;43.706;10.780;2024-03-22T00:49:54;11.60;;;10.48;;
45114;SDS011;30877;43.706;10.780;2024-03-22T00:52:25;12.57;;;10.63;;
45114;SDS011;30877;43.706;10.780;2024-03-22T00:54:52;12.52;;;11.23;;
45114;SDS011;30877;43.706;10.780;2024-03-22T00:57:19;12.68;;;11.15;;
45114;SDS011;30877;43.706;10.780;2024-03-22T00:59:47;12.50;;;10.68;;
45114;SDS011;30877;43.706;10.780;2024-03-22T01:02:14;12.73;;;10.68;;
45114;SDS011;30877;43.706;10.780;2024-03-22T01:04:42;12.32;;;10.48;;
45114;SDS011;30877;43.706;10.780;2024-03-22T01:07:14;14.32;;;10.15;;
45114;SDS011;30877;43.706;10.780;2024-03-22T01:09:42;11.73;;;10.43;;
45114;SDS011;30877;43.706;10.780;2024-03-22T01:12:16;12.15;;;10.18;;
45114;SDS011;30877;43.706;10.780;2024-03-22T01:14:46;10.63;;;9.52;;
45114;SDS011;30877;43.706;10.780;2024-03-22T01:17:14;12.13;;;9.75;;
45114;SDS011;30877;43.706;10.780;2024-03-22T01:19:41;11.30;;;9.63;;
45114;SDS011;30877;43.706;10.780;2024-03-22T01:22:09;10.75;;;9.40;;
45114;SDS011;30877;43.706;10.780;2024-03-22T01:24:39;11.13;;;9.20;;
45114;SDS011;30877;43.706;10.780;2024-03-22T01:27:06;11.05;;;9.85;;
45114;SDS011;30877;43.706;10.780;2024-03-22T01:29:33;10.95;;;9.95;;
45114;SDS011;30877;43.706;10.780;2024-03-22T01:32:02;11.27;;;9.98;;
45114;SDS011;30877;43.706;10.780;2024-03-22T01:34:30;11.45;;;10.00;;
45114;SDS011;30877;43.706;10.780;2024-03-22T01:36:58;12.38;;;9.30;;
45114;SDS011;30877;43.706;10.780;2024-03-22T01:39:25;10.70;;;8.82;;
45114;SDS011;30877;43.706;10.780;2024-03-22T01:41:57;10.77;;;9.68;;
45114;SDS011;30877;43.706;10.780;2024-03-22T01:44:27;10.90;;;9.23;;
45114;SDS011;30877;43.706;10.780;2024-03-22T01:46:57;11.27;;;9.68;;
45114;SDS011;30877;43.706;10.780;2024-03-22T01:49:28;11.35;;;9.07;;
45114;SDS011;30877;43.706;10.780;2024-03-22T01:51:55;11.60;;;9.27;;
45114;SDS011;30877;43.706;10.780;2024-03-22T01:54:23;10.50;;;9.32;;
45114;SDS011;30877;43.706;10.780;2024-03-22T01:56:50;11.13;;;9.23;;
45114;SDS011;30877;43.706;10.780;2024-03-22T01:59:20;9.82;;;8.88;;
45114;SDS011;30877;43.706;10.780;2024-03-22T02:01:48;11.00;;;8.93;;
45114;SDS011;30877;43.706;10.780;2024-03-22T02:04:17;10.40;;;8.98;;
45114;SDS011;30877;43.706;10.780;2024-03-22T02:06:44;9.20;;;8.30;;
45114;SDS011;30877;43.706;10.780;2024-03-22T02:09:11;11.18;;;8.23;;
45114;SDS011;30877;43.706;10.780;2024-03-22T02:11:39;10.77;;;8.38;;
45114;SDS011;30877;43.706;10.780;2024-03-22T02:14:06;10.07;;;8.40;;
45114;SDS011;30877;43.706;10.780;2024-03-22T02:16:39;12.18;;;8.48;;
45114;SDS011;30877;43.706;10.780;2024-03-22T02:19:06;8.38;;;7.13;;
45114;SDS011;30877;43.706;10.780;2024-03-22T02:21:33;9.57;;;8.30;;
45114;SDS011;30877;43.706;10.780;2024-03-22T02:24:05;8.95;;;7.95;;
45114;SDS011;30877;43.706;10.780;2024-03-22T02:26:33;13.85;;;8.98;;
45114;SDS011;30877;43.706;10.780;2024-03-22T02:29:00;11.95;;;8.93;;
45114;SDS011;30877;43.706;10.780;2024-03-22T02:31:28;10.40;;;9.23;;
45114;SDS011;30877;43.706;10.780;2024-03-22T02:33:57;10.73;;;9.63;;
45114;SDS011;30877;43.706;10.780;2024-03-22T02:36:24;11.98;;;8.93;;
45114;SDS011;30877;43.706;10.780;2024-03-22T02:38:52;10.57;;;9.13;;
45114;SDS011;30877;43.706;10.780;2024-03-22T02:41:20;9.70;;;8.65;;
45114;SDS011;30877;43.706;10.780;2024-03-22T02:43:47;9.18;;;8.27;;
45114;SDS011;30877;43.706;10.780;2024-03-22T02:46:17;11.10;;;7.45;;
45114;SDS011;30877;43.706;10.780;2024-03-22T02:48:44;7.63;;;6.82;;
45114;SDS011;30877;43.706;10.780;2024-03-22T02:51:13;8.38;;;7.55;;
45114;SDS011;30877;43.706;10.780;2024-03-22T02:53:41;7.72;;;6.93;;
45114;SDS011;30877;43.706;10.780;2024-03-22T02:56:08;9.55;;;6.93;;
45114;SDS011;30877;43.706;10.780;2024-03-22T02:58:40;8.85;;;7.20;;
45114;SDS011;30877;43.706;10.780;2024-03-22T03:01:09;8.43;;;6.97;;
45114;SDS011;30877;43.706;10.780;2024-03-22T03:03:36;9.93;;;7.82;;
45114;SDS011;30877;43.706;10.780;2024-03-22T03:06:03;8.63;;;7.72;;
45114;SDS011;30877;43.706;10.780;2024-03-22T03:08:32;12.15;;;9.38;;
45114;SDS011;30877;43.706;10.780;2024-03-22T03:11:00;12.07;;;9.43;;
45114;SDS011;30877;43.706;10.780;2024-03-22T03:13:29;12.30;;;9.38;;
45114;SDS011;30877;43.706;10.780;2024-03-22T03:16:00;17.77;;;10.50;;
45114;SDS011;30877;43.706;10.780;2024-03-22T03:18:29;11.05;;;9.40;;
45114;SDS011;30877;43.706;10.780;2024-03-22T03:20:56;15.82;;;11.38;;
45114;SDS011;30877;43.706;10.780;2024-03-22T03:23:23;18.20;;;12.25;;
45114;SDS011;30877;43.706;10.780;2024-03-22T03:25:50;20.38;;;12.65;;
45114;SDS011;30877;43.706;10.780;2024-03-22T03:28:18;21.63;;;12.60;;
45114;SDS011;30877;43.706;10.780;2024-03-22T03:30:48;28.38;;;14.80;;
45114;SDS011;30877;43.706;10.780;2024-03-22T03:33:16;32.95;;;16.92;;
45114;SDS011;30877;43.706;10.780;2024-03-22T03:35:45;36.67;;;17.25;;
45114;SDS011;30877;43.706;10.780;2024-03-22T03:38:12;33.78;;;18.20;;
45114;SDS011;30877;43.706;10.780;2024-03-22T03:40:40;39.08;;;18.73;;
45114;SDS011;30877;43.706;10.780;2024-03-22T03:43:07;34.53;;;16.77;;
45114;SDS011;30877;43.706;10.780;2024-03-22T03:45:36;35.05;;;17.85;;
45114;SDS011;30877;43.706;10.780;2024-03-22T03:48:04;40.58;;;17.10;;
45114;SDS011;30877;43.706;10.780;2024-03-22T03:50:33;29.80;;;16.40;;
45114;SDS011;30877;43.706;10.780;2024-03-22T03:53:02;50.80;;;16.83;;
45114;SDS011;30877;43.706;10.780;2024-03-22T03:55:30;38.35;;;15.90;;
45114;SDS011;30877;43.706;10.780;2024-03-22T03:57:57;54.65;;;14.70;;
45114;SDS011;30877;43.706;10.780;2024-03-22T04:00:25;43.40;;;14.73;;
45114;SDS011;30877;43.706;10.780;2024-03-22T04:02:52;28.52;;;13.82;;
45114;SDS011;30877;43.706;10.780;2024-03-22T04:05:19;25.00;;;14.00;;
45114;SDS011;30877;43.706;10.780;2024-03-22T04:07:48;37.47;;;13.70;;
45114;SDS011;30877;43.706;10.780;2024-03-22T04:10:16;34.35;;;13.88;;
45114;SDS011;30877;43.706;10.780;2024-03-22T04:12:45;23.77;;;12.43;;
45114;SDS011;30877;43.706;10.780;2024-03-22T04:15:12;24.85;;;13.60;;
45114;SDS011;30877;43.706;10.780;2024-03-22T04:17:40;27.33;;;13.32;;
45114;SDS011;30877;43.706;10.780;2024-03-22T04:20:08;26.33;;;13.93;;
45114;SDS011;30877;43.706;10.780;2024-03-22T04:22:37;18.63;;;13.13;;
45114;SDS011;30877;43.706;10.780;2024-03-22T04:25:07;23.73;;;14.32;;
45114;SDS011;30877;43.706;10.780;2024-03-22T04:27:37;22.48;;;14.48;;
45114;SDS011;30877;43.706;10.780;2024-03-22T04:30:05;23.02;;;14.98;;
45114;SDS011;30877;43.706;10.780;2024-03-22T04:32:34;25.80;;;14.13;;
45114;SDS011;30877;43.706;10.780;2024-03-22T04:35:03;28.25;;;14.25;;
45114;SDS011;30877;43.706;10.780;2024-03-22T04:37:32;23.08;;;13.95;;
45114;SDS011;30877;43.706;10.780;2024-03-22T04:39:59;18.88;;;14.02;;
45114;SDS011;30877;43.706;10.780;2024-03-22T04:42:29;19.45;;;14.30;;
45114;SDS011;30877;43.706;10.780;2024-03-22T04:44:57;19.23;;;14.40;;
45114;SDS011;30877;43.706;10.780;2024-03-22T04:47:25;23.13;;;15.13;;
45114;SDS011;30877;43.706;10.780;2024-03-22T04:49:53;19.13;;;13.93;;
45114;SDS011;30877;43.706;10.780;2024-03-22T04:52:21;27.27;;;15.13;;
45114;SDS011;30877;43.706;10.780;2024-03-22T04:54:52;22.08;;;14.80;;
45114;SDS011;30877;43.706;10.780;2024-03-22T04:57:19;20.15;;;13.40;;
45114;SDS011;30877;43.706;10.780;2024-03-22T04:59:49;20.40;;;13.18;;
45114;SDS011;30877;43.706;10.780;2024-03-22T05:02:17;18.05;;;12.77;;
45114;SDS011;30877;43.706;10.780;2024-03-22T05:04:44;24.85;;;13.60;;
45114;SDS011;30877;43.706;10.780;2024-03-22T05:07:12;17.27;;;12.88;;
45114;SDS011;30877;43.706;10.780;2024-03-22T05:09:40;16.45;;;12.82;;
45114;SDS011;30877;43.706;10.780;2024-03-22T05:12:08;15.50;;;12.13;;
45114;SDS011;30877;43.706;10.780;2024-03-22T05:14:36;24.15;;;13.82;;
45114;SDS011;30877;43.706;10.780;2024-03-22T05:17:05;17.48;;;12.90;;
45114;SDS011;30877;43.706;10.780;2024-03-22T05:19:33;20.02;;;13.27;;
45114;SDS011;30877;43.706;10.780;2024-03-22T05:22:03;18.08;;;13.02;;
45114;SDS011;30877;43.706;10.780;2024-03-22T05:24:32;14.82;;;11.35;;
45114;SDS011;30877;43.706;10.780;2024-03-22T05:27:01;19.98;;;11.80;;
45114;SDS011;30877;43.706;10.780;2024-03-22T05:29:31;18.50;;;12.15;;
45114;SDS011;30877;43.706;10.780;2024-03-22T05:31:58;18.95;;;11.40;;
45114;SDS011;30877;43.706;10.780;2024-03-22T05:34:28;16.83;;;11.50;;
45114;SDS011;30877;43.706;10.780;2024-03-22T05:36:57;17.35;;;10.35;;
45114;SDS011;30877;43.706;10.780;2024-03-22T05:39:25;14.77;;;9.77;;
45114;SDS011;30877;43.706;10.780;2024-03-22T05:41:53;15.32;;;10.02;;
45114;SDS011;30877;43.706;10.780;2024-03-22T05:44:21;13.25;;;8.98;;
45114;SDS011;30877;43.706;10.780;2024-03-22T05:46:49;15.35;;;9.60;;
45114;SDS011;30877;43.706;10.780;2024-03-22T05:49:16;13.88;;;9.30;;
45114;SDS011;30877;43.706;10.780;2024-03-22T05:51:46;16.40;;;9.10;;
45114;SDS011;30877;43.706;10.780;2024-03-22T05:54:14;14.75;;;9.02;;
45114;SDS011;30877;43.706;10.780;2024-03-22T05:56:42;15.43;;;8.45;;
45114;SDS011;30877;43.706;10.780;2024-03-22T05:59:09;13.25;;;8.95;;
45114;SDS011;30877;43.706;10.780;2024-03-22T06:01:36;12.45;;;8.40;;
45114;SDS011;30877;43.706;10.780;2024-03-22T06:04:04;16.40;;;7.93;;
45114;SDS011;30877;43.706;10.780;2024-03-22T06:06:32;24.85;;;8.27;;
45114;SDS011;30877;43.706;10.780;2024-03-22T06:09:05;12.00;;;8.10;;
45114;SDS011;30877;43.706;10.780;2024-03-22T06:11:39;15.85;;;7.75;;
45114;SDS011;30877;43.706;10.780;2024-03-22T06:14:10;11.15;;;7.85;;
45114;SDS011;30877;43.706;10.780;2024-03-22T06:16:38;14.52;;;7.75;;
45114;SDS011;30877;43.706;10.780;2024-03-22T06:19:10;16.75;;;7.45;;
45114;SDS011;30877;43.706;10.780;2024-03-22T06:21:37;21.98;;;7.63;;
45114;SDS011;30877;43.706;10.780;2024-03-22T06:24:07;14.27;;;7.30;;
45114;SDS011;30877;43.706;10.780;2024-03-22T06:26:35;12.60;;;7.15;;
45114;SDS011;30877;43.706;10.780;2024-03-22T06:29:02;15.18;;;7.07;;
45114;SDS011;30877;43.706;10.780;2024-03-22T06:31:29;9.43;;;6.82;;
45114;SDS011;30877;43.706;10.780;2024-03-22T06:33:58;23.67;;;7.32;;
45114;SDS011;30877;43.706;10.780;2024-03-22T06:36:28;10.73;;;6.25;;
45114;SDS011;30877;43.706;10.780;2024-03-22T06:38:57;9.73;;;6.65;;
45114;SDS011;30877;43.706;10.780;2024-03-22T06:41:27;39.85;;;7.32;;
45114;SDS011;30877;43.706;10.780;2024-03-22T06:43:54;17.15;;;6.80;;
45114;SDS011;30877;43.706;10.780;2024-03-22T06:46:22;11.00;;;7.22;;
45114;SDS011;30877;43.706;10.780;2024-03-22T06:48:49;11.52;;;6.97;;
45114;SDS011;30877;43.706;10.780;2024-03-22T06:51:17;17.27;;;7.47;;
45114;SDS011;30877;43.706;10.780;2024-03-22T06:53:45;20.70;;;8.48;;
45114;SDS011;30877;43.706;10.780;2024-03-22T06:56:14;22.35;;;7.90;;
45114;SDS011;30877;43.706;10.780;2024-03-22T06:58:43;20.10;;;8.25;;
45114;SDS011;30877;43.706;10.780;2024-03-22T07:01:11;16.80;;;8.23;;
45114;SDS011;30877;43.706;10.780;2024-03-22T07:03:40;15.18;;;8.40;;
45114;SDS011;30877;43.706;10.780;2024-03-22T07:06:13;11.32;;;8.65;;
45114;SDS011;30877;43.706;10.780;2024-03-22T07:08:42;16.05;;;8.77;;
45114;SDS011;30877;43.706;10.780;2024-03-22T07:11:12;12.68;;;9.02;;
45114;SDS011;30877;43.706;10.780;2024-03-22T07:13:41;13.20;;;9.63;;
45114;SDS011;30877;43.706;10.780;2024-03-22T07:16:10;13.57;;;9.65;;
45114;SDS011;30877;43.706;10.780;2024-03-22T07:18:37;15.38;;;8.88;;
45114;SDS011;30877;43.706;10.780;2024-03-22T07:21:05;21.35;;;9.57;;
45114;SDS011;30877;43.706;10.780;2024-03-22T07:23:33;12.73;;;8.52;;
45114;SDS011;30877;43.706;10.780;2024-03-22T07:26:01;9.60;;;8.07;;
45114;SDS011;30877;43.706;10.780;2024-03-22T07:28:31;11.02;;;8.73;;
45114;SDS011;30877;43.706;10.780;2024-03-22T07:31:00;11.70;;;8.93;;
45114;SDS011;30877;43.706;10.780;2024-03-22T07:33:27;16.13;;;9.55;;
45114;SDS011;30877;43.706;10.780;2024-03-22T07:35:55;19.80;;;9.23;;
45114;SDS011;30877;43.706;10.780;2024-03-22T07:38:22;18.75;;;8.95;;
45114;SDS011;30877;43.706;10.780;2024-03-22T07:40:49;23.75;;;9.45;;
45114;SDS011;30877;43.706;10.780;2024-03-22T07:43:16;15.88;;;9.45;;
45114;SDS011;30877;43.706;10.780;2024-03-22T07:45:44;11.15;;;8.40;;
45114;SDS011;30877;43.706;10.780;2024-03-22T07:48:13;14.38;;;9.40;;
45114;SDS011;30877;43.706;10.780;2024-03-22T07:50:41;12.57;;;9.30;;
45114;SDS011;30877;43.706;10.780;2024-03-22T07:53:09;12.65;;;9.88;;
45114;SDS011;30877;43.706;10.780;2024-03-22T07:55:36;12.45;;;10.25;;
45114;SDS011;30877;43.706;10.780;2024-03-22T07:58:04;17.90;;;10.35;;
45114;SDS011;30877;43.706;10.780;2024-03-22T08:00:32;14.70;;;10.80;;
45114;SDS011;30877;43.706;10.780;2024-03-22T08:02:59;20.05;;;14.13;;
45114;SDS011;30877;43.706;10.780;2024-03-22T08:05:30;23.25;;;16.83;;
45114;SDS011;30877;43.706;10.780;2024-03-22T08:07:57;21.13;;;16.55;;
45114;SDS011;30877;43.706;10.780;2024-03-22T08:10:24;24.20;;;16.58;;
45114;SDS011;30877;43.706;10.780;2024-03-22T08:12:53;28.63;;;19.10;;
45114;SDS011;30877;43.706;10.780;2024-03-22T08:15:20;27.38;;;19.50;;
45114;SDS011;30877;43.706;10.780;2024-03-22T08:17:48;35.13;;;22.73;;
45114;SDS011;30877;43.706;10.780;2024-03-22T08:20:16;34.17;;;23.40;;
45114;SDS011;30877;43.706;10.780;2024-03-22T08:22:46;34.30;;;23.95;;
45114;SDS011;30877;43.706;10.780;2024-03-22T08:25:15;27.98;;;21.48;;
45114;SDS011;30877;43.706;10.780;2024-03-22T08:27:45;28.05;;;19.45;;
45114;SDS011;30877;43.706;10.780;2024-03-22T08:30:13;21.85;;;17.48;;
45114;SDS011;30877;43.706;10.780;2024-03-22T08:32:41;22.75;;;17.88;;
45114;SDS011;30877;43.706;10.780;2024-03-22T08:35:11;20.13;;;14.98;;
45114;SDS011;30877;43.706;10.780;2024-03-22T08:37:40;20.25;;;15.65;;
45114;SDS011;30877;43.706;10.780;2024-03-22T08:40:11;17.52;;;14.57;;
45114;SDS011;30877;43.706;10.780;2024-03-22T08:42:41;17.05;;;13.05;;
45114;SDS011;30877;43.706;10.780;2024-03-22T08:45:08;16.88;;;13.57;;
45114;SDS011;30877;43.706;10.780;2024-03-22T08:47:35;20.15;;;15.40;;
45114;SDS011;30877;43.706;10.780;2024-03-22T08:50:06;21.05;;;16.30;;
45114;SDS011;30877;43.706;10.780;2024-03-22T08:52:36;20.08;;;14.65;;
45114;SDS011;30877;43.706;10.780;2024-03-22T08:55:04;18.73;;;14.30;;
45114;SDS011;30877;43.706;10.780;2024-03-22T08:57:34;18.55;;;15.05;;
45114;SDS011;30877;43.706;10.780;2024-03-22T09:00:05;19.13;;;15.73;;
45114;SDS011;30877;43.706;10.780;2024-03-22T09:02:35;20.27;;;15.02;;
45114;SDS011;30877;43.706;10.780;2024-03-22T09:05:04;18.80;;;14.63;;
45114;SDS011;30877;43.706;10.780;2024-03-22T09:07:33;17.42;;;13.82;;
45114;SDS011;30877;43.706;10.780;2024-03-22T09:10:01;20.27;;;15.18;;
45114;SDS011;30877;43.706;10.780;2024-03-22T09:12:28;17.23;;;13.98;;
45114;SDS011;30877;43.706;10.780;2024-03-22T09:14:57;16.13;;;13.80;;
45114;SDS011;30877;43.706;10.780;2024-03-22T09:17:24;21.83;;;15.90;;
45114;SDS011;30877;43.706;10.780;2024-03-22T09:19:51;18.15;;;14.70;;
45114;SDS011;30877;43.706;10.780;2024-03-22T09:22:21;21.67;;;17.13;;
45114;SDS011;30877;43.706;10.780;2024-03-22T09:24:49;24.33;;;17.95;;
45114;SDS011;30877;43.706;10.780;2024-03-22T09:27:18;24.17;;;18.63;;
45114;SDS011;30877;43.706;10.780;2024-03-22T09:29:46;30.80;;;22.45;;
45114;SDS011;30877;43.706;10.780;2024-03-22T09:32:18;31.35;;;21.25;;
45114;SDS011;30877;43.706;10.780;2024-03-22T09:34:45;31.42;;;21.90;;
45114;SDS011;30877;43.706;10.780;2024-03-22T09:37:16;27.60;;;20.98;;
45114;SDS011;30877;43.706;10.780;2024-03-22T09:39:43;32.33;;;21.92;;
45114;SDS011;30877;43.706;10.780;2024-03-22T09:42:12;30.20;;;20.48;;
45114;SDS011;30877;43.706;10.780;2024-03-22T09:44:43;26.85;;;20.02;;
45114;SDS011;30877;43.706;10.780;2024-03-22T09:47:15;27.13;;;20.27;;
45114;SDS011;30877;43.706;10.780;2024-03-22T09:49:46;23.17;;;18.73;;
45114;SDS011;30877;43.706;10.780;2024-03-22T09:52:15;20.33;;;15.98;;
45114;SDS011;30877;43.706;10.780;2024-03-22T09:54:48;22.00;;;17.48;;
45114;SDS011;30877;43.706;10.780;2024-03-22T09:57:17;19.83;;;15.65;;
45114;SDS011;30877;43.706;10.780;2024-03-22T09:59:45;18.52;;;14.63;;
45114;SDS011;30877;43.706;10.780;2024-03-22T10:02:13;19.67;;;14.65;;
45114;SDS011;30877;43.706;10.780;2024-03-22T10:04:43;20.10;;;15.00;;
45114;SDS011;30877;43.706;10.780;2024-03-22T10:07:12;21.77;;;14.90;;
45114;SDS011;30877;43.706;10.780;2024-03-22T10:09:41;17.60;;;13.85;;
45114;SDS011;30877;43.706;10.780;2024-03-22T10:12:12;16.05;;;12.95;;
45114;SDS011;30877;43.706;10.780;2024-03-22T10:14:43;17.25;;;12.35;;
45114;SDS011;30877;43.706;10.780;2024-03-22T10:17:10;14.20;;;10.68;;
45114;SDS011;30877;43.706;10.780;2024-03-22T10:19:38;14.05;;;9.60;;
45114;SDS011;30877;43.706;10.780;2024-03-22T10:22:08;11.05;;;9.30;;
45114;SDS011;30877;43.706;10.780;2024-03-22T10:24:35;10.20;;;8.77;;
45114;SDS011;30877;43.706;10.780;2024-03-22T10:27:03;9.88;;;8.35;;
45114;SDS011;30877;43.706;10.780;2024-03-22T10:29:30;11.25;;;8.02;;
45114;SDS011;30877;43.706;10.780;2024-03-22T10:31:59;8.40;;;7.07;;
45114;SDS011;30877;43.706;10.780;2024-03-22T10:34:28;9.02;;;6.85;;
45114;SDS011;30877;43.706;10.780;2024-03-22T10:36:57;7.25;;;6.35;;
45114;SDS011;30877;43.706;10.780;2024-03-22T10:39:29;7.65;;;6.82;;
45114;SDS011;30877;43.706;10.780;2024-03-22T10:41:58;7.28;;;5.93;;
45114;SDS011;30877;43.706;10.780;2024-03-22T10:44:26;6.40;;;5.07;;
45114;SDS011;30877;43.706;10.780;2024-03-22T10:46:56;6.10;;;5.20;;
45114;SDS011;30877;43.706;10.780;2024-03-22T10:49:28;7.75;;;4.75;;
45114;SDS011;30877;43.706;10.780;2024-03-22T10:51:58;6.45;;;4.20;;
45114;SDS011;30877;43.706;10.780;2024-03-22T10:54:30;4.57;;;3.60;;
45114;SDS011;30877;43.706;10.780;2024-03-22T10:57:01;4.10;;;2.40;;
45114;SDS011;30877;43.706;10.780;2024-03-22T10:59:33;3.47;;;2.50;;
45114;SDS011;30877;43.706;10.780;2024-03-22T11:02:02;2.53;;;2.28;;
45114;SDS011;30877;43.706;10.780;2024-03-22T11:04:31;2.58;;;2.33;;
45114;SDS011;30877;43.706;10.780;2024-03-22T11:07:02;3.28;;;2.40;;
45114;SDS011;30877;43.706;10.780;2024-03-22T11:09:31;2.72;;;1.90;;
45114;SDS011;30877;43.706;10.780;2024-03-22T11:11:59;3.10;;;2.22;;
45114;SDS011;30877;43.706;10.780;2024-03-22T11:14:27;3.33;;;1.70;;
45114;SDS011;30877;43.706;10.780;2024-03-22T11:16:55;1.98;;;1.35;;
45114;SDS011;30877;43.706;10.780;2024-03-22T11:19:22;3.13;;;1.52;;
45114;SDS011;30877;43.706;10.780;2024-03-22T11:21:52;2.90;;;1.70;;
45114;SDS011;30877;43.706;10.780;2024-03-22T11:24:22;1.55;;;1.30;;
45114;SDS011;30877;43.706;10.780;2024-03-22T11:26:54;1.77;;;1.08;;
45114;SDS011;30877;43.706;10.780;2024-03-22T11:29:22;3.22;;;1.48;;
45114;SDS011;30877;43.706;10.780;2024-03-22T11:31:51;2.78;;;1.30;;
45114;SDS011;30877;43.706;10.780;2024-03-22T11:34:18;1.70;;;1.23;;
45114;SDS011;30877;43.706;10.780;2024-03-22T11:36:47;1.65;;;1.23;;
45114;SDS011;30877;43.706;10.780;2024-03-22T11:39:17;1.40;;;1.20;;
45114;SDS011;30877;43.706;10.780;2024-03-22T11:41:48;1.30;;;1.20;;
45114;SDS011;30877;43.706;10.780;2024-03-22T11:44:18;2.38;;;1.10;;
45114;SDS011;30877;43.706;10.780;2024-03-22T11:46:48;1.63;;;1.33;;
45114;SDS011;30877;43.706;10.780;2024-03-22T11:49:17;1.38;;;1.10;;
45114;SDS011;30877;43.706;10.780;2024-03-22T11:51:44;3.42;;;1.40;;
45114;SDS011;30877;43.706;10.780;2024-03-22T11:54:12;1.88;;;1.60;;
45114;SDS011;30877;43.706;10.780;2024-03-22T11:56:41;3.40;;;1.73;;
45114;SDS011;30877;43.706;10.780;2024-03-22T11:59:12;1.83;;;1.35;;
45114;SDS011;30877;43.706;10.780;2024-03-22T12:01:41;4.20;;;1.50;;
45114;SDS011;30877;43.706;10.780;2024-03-22T12:04:09;3.75;;;1.85;;
45114;SDS011;30877;43.706;10.780;2024-03-22T12:06:41;2.13;;;1.63;;
45114;SDS011;30877;43.706;10.780;2024-03-22T12:09:12;1.48;;;1.33;;
45114;SDS011;30877;43.706;10.780;2024-03-22T12:11:40;2.25;;;1.50;;
45114;SDS011;30877;43.706;10.780;2024-03-22T12:14:07;1.75;;;1.42;;
45114;SDS011;30877;43.706;10.780;2024-03-22T12:16:36;1.42;;;1.33;;
45114;SDS011;30877;43.706;10.780;2024-03-22T12:19:05;1.30;;;1.20;;
45114;SDS011;30877;43.706;10.780;2024-03-22T12:21:35;2.00;;;1.15;;
45114;SDS011;30877;43.706;10.780;2024-03-22T12:24:03;1.27;;;1.08;;
45114;SDS011;30877;43.706;10.780;2024-03-22T12:26:31;2.22;;;1.30;;
45114;SDS011;30877;43.706;10.780;2024-03-22T12:28:59;1.88;;;1.30;;
45114;SDS011;30877;43.706;10.780;2024-03-22T12:31:26;1.15;;;0.95;;
45114;SDS011;30877;43.706;10.780;2024-03-22T12:33:55;3.20;;;1.30;;
45114;SDS011;30877;43.706;10.780;2024-03-22T12:36:24;2.03;;;1.30;;
45114;SDS011;30877;43.706;10.780;2024-03-22T12:38:52;1.95;;;1.10;;
45114;SDS011;30877;43.706;10.780;2024-03-22T12:41:20;2.40;;;1.40;;
45114;SDS011;30877;43.706;10.780;2024-03-22T12:43:49;1.33;;;1.08;;
45114;SDS011;30877;43.706;10.780;2024-03-22T12:46:17;2.30;;;1.20;;
45114;SDS011;30877;43.706;10.780;2024-03-22T12:48:44;1.52;;;1.08;;
45114;SDS011;30877;43.706;10.780;2024-03-22T12:51:12;1.38;;;1.25;;
45114;SDS011;30877;43.706;10.780;2024-03-22T12:53:43;1.27;;;1.00;;
45114;SDS011;30877;43.706;10.780;2024-03-22T12:56:11;1.70;;;1.30;;
45114;SDS011;30877;43.706;10.780;2024-03-22T12:58:38;2.85;;;1.05;;
45114;SDS011;30877;43.706;10.780;2024-03-22T13:01:08;1.30;;;0.98;;
45114;SDS011;30877;43.706;10.780;2024-03-22T13:03:39;1.08;;;0.95;;
45114;SDS011;30877;43.706;10.780;2024-03-22T13:06:06;1.90;;;1.20;;
45114;SDS011;30877;43.706;10.780;2024-03-22T13:08:34;1.10;;;0.82;;
45114;SDS011;30877;43.706;10.780;2024-03-22T13:11:03;1.30;;;1.00;;
45114;SDS011;30877;43.706;10.780;2024-03-22T13:13:32;1.70;;;1.20;;
45114;SDS011;30877;43.706;10.780;2024-03-22T13:16:00;1.25;;;1.10;;
45114;SDS011;30877;43.706;10.780;2024-03-22T13:18:28;1.77;;;1.13;;
45114;SDS011;30877;43.706;10.780;2024-03-22T13:20:58;2.38;;;1.15;;
45114;SDS011;30877;43.706;10.780;2024-03-22T13:23:27;2.13;;;1.10;;
45114;SDS011;30877;43.706;10.780;2024-03-22T13:25:56;1.33;;;0.90;;
45114;SDS011;30877;43.706;10.780;2024-03-22T13:28:51;2.10;;;0.82;;
45114;SDS011;30877;43.706;10.780;2024-03-22T13:31:19;1.88;;;0.80;;
45114;SDS011;30877;43.706;10.780;2024-03-22T13:33:46;1.80;;;0.80;;
45114;SDS011;30877;43.706;10.780;2024-03-22T13:36:14;1.77;;;0.95;;
45114;SDS011;30877;43.706;10.780;2024-03-22T13:38:42;2.30;;;1.00;;
45114;SDS011;30877;43.706;10.780;2024-03-22T13:41:10;1.02;;;0.90;;
45114;SDS011;30877;43.706;10.780;2024-03-22T13:43:40;1.08;;;0.90;;
45114;SDS011;30877;43.706;10.780;2024-03-22T13:46:11;2.80;;;0.98;;
45114;SDS011;30877;43.706;10.780;2024-03-22T13:48:42;1.17;;;0.90;;
45114;SDS011;30877;43.706;10.780;2024-03-22T13:51:10;1.27;;;0.80;;
45114;SDS011;30877;43.706;10.780;2024-03-22T13:53:38;1.50;;;1.00;;
45114;SDS011;30877;43.706;10.780;2024-03-22T13:56:07;1.08;;;0.80;;
45114;SDS011;30877;43.706;10.780;2024-03-22T13:58:34;1.15;;;0.98;;
45114;SDS011;30877;43.706;10.780;2024-03-22T14:01:02;2.90;;;1.10;;
45114;SDS011;30877;43.706;10.780;2024-03-22T14:03:32;0.98;;;0.88;;
45114;SDS011;30877;43.706;10.780;2024-03-22T14:06:00;1.02;;;0.85;;
45114;SDS011;30877;43.706;10.780;2024-03-22T14:08:28;1.42;;;1.17;;
45114;SDS011;30877;43.706;10.780;2024-03-22T14:10:55;2.85;;;1.30;;
45114;SDS011;30877;43.706;10.780;2024-03-22T14:13:23;1.48;;;0.98;;
45114;SDS011;30877;43.706;10.780;2024-03-22T14:15:49;1.17;;;1.00;;
45114;SDS011;30877;43.706;10.780;2024-03-22T14:18:18;1.05;;;0.95;;
45114;SDS011;30877;43.706;10.780;2024-03-22T14:20:47;0.90;;;0.80;;
45114;SDS011;30877;43.706;10.780;2024-03-22T14:23:16;1.30;;;0.90;;
45114;SDS011;30877;43.706;10.780;2024-03-22T14:25:46;2.25;;;0.90;;
45114;SDS011;30877;43.706;10.780;2024-03-22T14:28:14;2.35;;;0.90;;